sensor_id;sensor_type;location;lat;lon;timestamp;P1;P2;P0
57049;PMS7003;42935;50.966;16.992;2024-03-02T00:06:20;115;91;52
57049;PMS7003;42935;50.966;16.992;2024-03-02T00:15:48;108;90;52
57049;PMS7003;42935;50.966;16.992;2024-03-02T00:25:18;107;89;51
57049;PMS7003;42935;50.966;16.992;2024-03-02T00:34:43;112;91;51
57049;PMS7003;42935;50.966;16.992;2024-03-02T00:44:09;112;92;53
57049;PMS7003;42935;50.966;16.992;2024-03-02T00:53:38;111;89;51
57049;PMS7003;42935;50.966;16.992;2024-03-02T01:02:59;112;91;52
57049;PMS7003;42935;50.966;16.992;2024-03-02T01:12:27;110;90;51
57049;PMS7003;42935;50.966;16.992;2024-03-02T01:21:43;107;86;50
57049;PMS7003;42935;50.966;16.992;2024-03-02T01:31:12;110;88;52
57049;PMS7003;42935;50.966;16.992;2024-03-02T01:40:34;111;92;52
57049;PMS7003;42935;50.966;16.992;2024-03-02T01:49:54;109;89;50
57049;PMS7003;42935;50.966;16.992;2024-03-02T01:59:14;107;88;51
57049;PMS7003;42935;50.966;16.992;2024-03-02T02:08:29;111;88;50
57049;PMS7003;42935;50.966;16.992;2024-03-02T02:17:53;107;88;51
57049;PMS7003;42935;50.966;16.992;2024-03-02T02:27:16;115;93;51
57049;PMS7003;42935;50.966;16.992;2024-03-02T02:36:44;114;89;52
57049;PMS7003;42935;50.966;16.992;2024-03-02T02:46:07;103;85;49
57049;PMS7003;42935;50.966;16.992;2024-03-02T02:55:23;114;89;48
57049;PMS7003;42935;50.966;16.992;2024-03-02T03:04:47;104;85;49
57049;PMS7003;42935;50.966;16.992;2024-03-02T03:14:15;111;86;48
57049;PMS7003;42935;50.966;16.992;2024-03-02T03:23:32;101;83;50
57049;PMS7003;42935;50.966;16.992;2024-03-02T03:32:55;105;86;50
57049;PMS7003;42935;50.966;16.992;2024-03-02T03:42:18;106;85;48
57049;PMS7003;42935;50.966;16.992;2024-03-02T03:51:38;102;85;50
57049;PMS7003;42935;50.966;16.992;2024-03-02T04:00:57;100;82;47
57049;PMS7003;42935;50.966;16.992;2024-03-02T04:10:21;96;79;45
57049;PMS7003;42935;50.966;16.992;2024-03-02T04:19:48;96;75;46
57049;PMS7003;42935;50.966;16.992;2024-03-02T04:29:11;97;77;44
57049;PMS7003;42935;50.966;16.992;2024-03-02T04:38:28;96;79;46
57049;PMS7003;42935;50.966;16.992;2024-03-02T04:47:50;98;78;45
57049;PMS7003;42935;50.966;16.992;2024-03-02T04:57:13;90;74;44
57049;PMS7003;42935;50.966;16.992;2024-03-02T05:06:34;89;71;41
57049;PMS7003;42935;50.966;16.992;2024-03-02T05:15:59;86;69;42
57049;PMS7003;42935;50.966;16.992;2024-03-02T05:25:24;86;70;42
57049;PMS7003;42935;50.966;16.992;2024-03-02T05:34:48;90;69;40
57049;PMS7003;42935;50.966;16.992;2024-03-02T05:44:10;86;70;41
57049;PMS7003;42935;50.966;16.992;2024-03-02T05:53:31;89;68;41
57049;PMS7003;42935;50.966;16.992;2024-03-02T06:02:56;90;73;41
57049;PMS7003;42935;50.966;16.992;2024-03-02T06:12:22;85;70;41
57049;PMS7003;42935;50.966;16.992;2024-03-02T06:21:48;90;71;40
57049;PMS7003;42935;50.966;16.992;2024-03-02T06:31:21;80;66;39
57049;PMS7003;42935;50.966;16.992;2024-03-02T06:40:48;86;67;40
57049;PMS7003;42935;50.966;16.992;2024-03-02T06:50:13;86;66;39
57049;PMS7003;42935;50.966;16.992;2024-03-02T06:59:39;86;65;38
57049;PMS7003;42935;50.966;16.992;2024-03-02T07:09:06;89;69;40
57049;PMS7003;42935;50.966;16.992;2024-03-02T07:18:33;95;76;42
57049;PMS7003;42935;50.966;16.992;2024-03-02T07:28:02;97;76;43
57049;PMS7003;42935;50.966;16.992;2024-03-02T07:37:28;90;74;43
57049;PMS7003;42935;50.966;16.992;2024-03-02T07:46:48;93;71;43
57049;PMS7003;42935;50.966;16.992;2024-03-02T07:56:11;89;74;44
57049;PMS7003;42935;50.966;16.992;2024-03-02T08:05:37;93;74;43
57049;PMS7003;42935;50.966;16.992;2024-03-02T08:14:52;97;76;45
57049;PMS7003;42935;50.966;16.992;2024-03-02T08:24:10;92;76;43
57049;PMS7003;42935;50.966;16.992;2024-03-02T08:33:40;89;73;42
57049;PMS7003;42935;50.966;16.992;2024-03-02T08:43:00;88;70;39
57049;PMS7003;42935;50.966;16.992;2024-03-02T08:52:25;82;66;39
57049;PMS7003;42935;50.966;16.992;2024-03-02T09:01:48;84;67;38
57049;PMS7003;42935;50.966;16.992;2024-03-02T09:11:19;80;64;38
57049;PMS7003;42935;50.966;16.992;2024-03-02T09:20:37;79;63;36
57049;PMS7003;42935;50.966;16.992;2024-03-02T09:30:01;78;60;36
57049;PMS7003;42935;50.966;16.992;2024-03-02T09:39:20;79;59;36
57049;PMS7003;42935;50.966;16.992;2024-03-02T09:48:40;75;57;35
57049;PMS7003;42935;50.966;16.992;2024-03-02T09:57:59;73;55;33
57049;PMS7003;42935;50.966;16.992;2024-03-02T10:07:18;68;52;33
57049;PMS7003;42935;50.966;16.992;2024-03-02T10:16:40;73;54;33
57049;PMS7003;42935;50.966;16.992;2024-03-02T10:26:01;71;53;34
57049;PMS7003;42935;50.966;16.992;2024-03-02T10:35:20;67;51;32
57049;PMS7003;42935;50.966;16.992;2024-03-02T10:44:41;67;52;32
57049;PMS7003;42935;50.966;16.992;2024-03-02T10:54:05;61;48;30
57049;PMS7003;42935;50.966;16.992;2024-03-02T11:03:29;63;49;31
57049;PMS7003;42935;50.966;16.992;2024-03-02T11:13:00;57;46;29
57049;PMS7003;42935;50.966;16.992;2024-03-02T11:22:30;58;46;29
57049;PMS7003;42935;50.966;16.992;2024-03-02T11:41:20;57;44;28
57049;PMS7003;42935;50.966;16.992;2024-03-02T12:00:21;52;43;27
57049;PMS7003;42935;50.966;16.992;2024-03-02T12:09:35;50;40;26
57049;PMS7003;42935;50.966;16.992;2024-03-02T12:18:54;51;40;25
57049;PMS7003;42935;50.966;16.992;2024-03-02T12:28:09;47;38;24
57049;PMS7003;42935;50.966;16.992;2024-03-02T12:37:24;47;38;24
57049;PMS7003;42935;50.966;16.992;2024-03-02T12:46:42;51;40;26
57049;PMS7003;42935;50.966;16.992;2024-03-02T12:55:59;55;43;27
57049;PMS7003;42935;50.966;16.992;2024-03-02T13:05:19;59;45;28
57049;PMS7003;42935;50.966;16.992;2024-03-02T13:24:13;57;44;28
57049;PMS7003;42935;50.966;16.992;2024-03-02T13:33:33;56;43;27
57049;PMS7003;42935;50.966;16.992;2024-03-02T13:43:04;57;43;27
57049;PMS7003;42935;50.966;16.992;2024-03-02T13:52:21;53;42;27
57049;PMS7003;42935;50.966;16.992;2024-03-02T14:01:40;55;44;28
57049;PMS7003;42935;50.966;16.992;2024-03-02T14:10:55;61;44;28
57049;PMS7003;42935;50.966;16.992;2024-03-02T14:20:21;56;44;28
57049;PMS7003;42935;50.966;16.992;2024-03-02T14:29:44;60;45;28
57049;PMS7003;42935;50.966;16.992;2024-03-02T14:39:17;53;43;28
57049;PMS7003;42935;50.966;16.992;2024-03-02T14:48:34;58;44;28
57049;PMS7003;42935;50.966;16.992;2024-03-02T14:57:59;57;44;28
57049;PMS7003;42935;50.966;16.992;2024-03-02T15:07:15;57;43;27
57049;PMS7003;42935;50.966;16.992;2024-03-02T15:16:40;54;43;26
57049;PMS7003;42935;50.966;16.992;2024-03-02T15:26:05;60;47;30
57049;PMS7003;42935;50.966;16.992;2024-03-02T15:35:21;61;47;30
57049;PMS7003;42935;50.966;16.992;2024-03-02T15:54:22;60;44;28
57049;PMS7003;42935;50.966;16.992;2024-03-02T16:03:52;59;45;29
57049;PMS7003;42935;50.966;16.992;2024-03-02T16:13:12;64;48;31
57049;PMS7003;42935;50.966;16.992;2024-03-02T16:22:32;85;72;42
57049;PMS7003;42935;50.966;16.992;2024-03-02T16:31:57;134;113;67
57049;PMS7003;42935;50.966;16.992;2024-03-02T16:41:32;116;95;54
57049;PMS7003;42935;50.966;16.992;2024-03-02T16:50:59;68;52;33
57049;PMS7003;42935;50.966;16.992;2024-03-02T17:00:23;73;54;34
57049;PMS7003;42935;50.966;16.992;2024-03-02T17:09:45;99;80;46
57049;PMS7003;42935;50.966;16.992;2024-03-02T17:19:08;77;60;37
57049;PMS7003;42935;50.966;16.992;2024-03-02T17:28:32;74;58;36
57049;PMS7003;42935;50.966;16.992;2024-03-02T17:37:56;76;55;35
57049;PMS7003;42935;50.966;16.992;2024-03-02T17:47:20;91;76;45
57049;PMS7003;42935;50.966;16.992;2024-03-02T17:56:40;74;57;35
57049;PMS7003;42935;50.966;16.992;2024-03-02T18:06:04;76;56;34
57049;PMS7003;42935;50.966;16.992;2024-03-02T18:15:26;77;55;34
57049;PMS7003;42935;50.966;16.992;2024-03-02T18:24:46;76;57;36
57049;PMS7003;42935;50.966;16.992;2024-03-02T18:34:06;97;80;46
57049;PMS7003;42935;50.966;16.992;2024-03-02T18:43:31;99;82;49
57049;PMS7003;42935;50.966;16.992;2024-03-02T18:52:50;69;53;35
57049;PMS7003;42935;50.966;16.992;2024-03-02T19:02:06;61;47;30
57049;PMS7003;42935;50.966;16.992;2024-03-02T19:11:33;53;41;27
57049;PMS7003;42935;50.966;16.992;2024-03-02T19:20:53;55;42;26
57049;PMS7003;42935;50.966;16.992;2024-03-02T19:30:15;50;40;26
57049;PMS7003;42935;50.966;16.992;2024-03-02T19:39:36;50;39;24
57049;PMS7003;42935;50.966;16.992;2024-03-02T19:49:03;53;41;26
57049;PMS7003;42935;50.966;16.992;2024-03-02T19:58:17;41;34;22
57049;PMS7003;42935;50.966;16.992;2024-03-02T20:07:36;54;42;26
57049;PMS7003;42935;50.966;16.992;2024-03-02T20:17:02;45;36;23
57049;PMS7003;42935;50.966;16.992;2024-03-02T20:26:16;48;36;25
57049;PMS7003;42935;50.966;16.992;2024-03-02T20:35:35;48;36;23
57049;PMS7003;42935;50.966;16.992;2024-03-02T20:44:54;49;39;25
57049;PMS7003;42935;50.966;16.992;2024-03-02T20:54:14;51;41;26
57049;PMS7003;42935;50.966;16.992;2024-03-02T21:03:34;57;42;27
57049;PMS7003;42935;50.966;16.992;2024-03-02T21:12:55;55;42;26
57049;PMS7003;42935;50.966;16.992;2024-03-02T21:22:15;59;45;27
57049;PMS7003;42935;50.966;16.992;2024-03-02T21:31:33;58;44;28
57049;PMS7003;42935;50.966;16.992;2024-03-02T21:40:48;52;41;26
57049;PMS7003;42935;50.966;16.992;2024-03-02T21:50:05;55;42;27
57049;PMS7003;42935;50.966;16.992;2024-03-02T21:59:25;54;42;28
57049;PMS7003;42935;50.966;16.992;2024-03-02T22:08:49;54;41;26
57049;PMS7003;42935;50.966;16.992;2024-03-02T22:18:08;53;41;26
57049;PMS7003;42935;50.966;16.992;2024-03-02T22:27:24;55;41;28
57049;PMS7003;42935;50.966;16.992;2024-03-02T22:36:41;56;44;28
57049;PMS7003;42935;50.966;16.992;2024-03-02T22:46:00;56;44;29
57049;PMS7003;42935;50.966;16.992;2024-03-02T22:55:23;60;46;28
57049;PMS7003;42935;50.966;16.992;2024-03-02T23:04:47;57;45;27
57049;PMS7003;42935;50.966;16.992;2024-03-02T23:14:07;60;47;30
57049;PMS7003;42935;50.966;16.992;2024-03-02T23:23:29;60;45;30
57049;PMS7003;42935;50.966;16.992;2024-03-02T23:32:49;63;49;30
57049;PMS7003;42935;50.966;16.992;2024-03-02T23:42:04;69;51;31
57049;PMS7003;42935;50.966;16.992;2024-03-02T23:51:25;66;49;30
